Time,TemperatureF,DewpointF,PressureIn,WindDirection,WindDirectionDegrees,WindSpeedMPH,WindSpeedGustMPH,Humidity,HourlyPrecipIn,Conditions,Clouds,dailyrainin,SoftwareType,DateUTC
2015-01-30 00:06:00,30.3,21.3,30.39,WNW,291,3.0,4.0,69,0.00,,,0.00,Wunderground v.1.15,2015-01-30 07:06:00,
2015-01-30 00:11:00,30.1,21.5,30.38,NNW,340,2.0,4.0,70,0.00,,,0.00,Wunderground v.1.15,2015-01-30 07:11:00,
2015-01-30 00:17:00,29.8,21.9,30.38,ENE,57,2.0,2.0,72,0.00,,,0.00,Wunderground v.1.15,2015-01-30 07:17:00,
2015-01-30 00:22:00,29.6,22.0,30.38,ENE,75,2.0,2.0,73,0.00,,,0.00,Wunderground v.1.15,2015-01-30 07:22:00,
2015-01-30 00:27:00,29.4,22.1,30.37,NE,47,3.0,3.0,74,0.00,,,0.00,Wunderground v.1.15,2015-01-30 07:27:00,
2015-01-30 00:32:00,29.2,22.3,30.37,NE,40,4.0,4.0,75,0.00,,,0.00,Wunderground v.1.15,2015-01-30 07:32:00,
2015-01-30 00:37:00,29.1,22.5,30.37,East,88,3.0,3.0,76,0.00,,,0.00,Wunderground v.1.15,2015-01-30 07:37:00,
2015-01-30 00:42:00,29.1,22.2,30.37,SE,127,2.0,10.0,75,0.00,,,0.00,Wunderground v.1.15,2015-01-30 07:42:00,
2015-01-30 00:47:00,29.2,21.9,30.37,SSE,162,3.0,10.0,74,0.00,,,0.00,Wunderground v.1.15,2015-01-30 07:47:00,
2015-01-30 00:57:00,29.5,21.6,30.36,East,94,3.0,3.0,72,0.00,,,0.00,Wunderground v.1.15,2015-01-30 07:57:00,
2015-01-30 01:07:00,29.7,21.4,30.36,East,82,4.0,6.0,71,0.00,,,0.00,Wunderground v.1.15,2015-01-30 08:07:00,
2015-01-30 01:17:00,29.7,21.4,30.35,ENE,65,4.0,5.0,71,0.00,,,0.00,Wunderground v.1.15,2015-01-30 08:17:00,
2015-01-30 01:22:00,29.7,21.4,30.35,SW,234,5.0,5.0,71,0.00,,,0.00,Wunderground v.1.15,2015-01-30 08:22:00,
2015-01-30 01:27:00,29.7,21.8,30.35,ENE,70,5.0,5.0,72,0.00,,,0.00,Wunderground v.1.15,2015-01-30 08:27:00,
2015-01-30 01:36:00,29.7,21.4,30.34,ENE,69,4.0,4.0,71,0.00,,,0.00,Wunderground v.1.15,2015-01-30 08:36:00,
2015-01-30 01:41:00,29.7,21.8,30.34,East,88,4.0,8.0,72,0.00,,,0.00,Wunderground v.1.15,2015-01-30 08:41:00,
2015-01-30 01:46:00,29.7,21.8,30.34,SE,130,3.0,10.0,72,0.00,,,0.00,Wunderground v.1.15,2015-01-30 08:46:00,
2015-01-30 01:57:00,29.8,21.5,30.34,ENE,75,2.0,2.0,71,0.00,,,0.00,Wunderground v.1.15,2015-01-30 08:57:00,
2015-01-30 02:07:00,29.9,21.3,30.33,NE,54,3.0,4.0,70,0.00,,,0.00,Wunderground v.1.15,2015-01-30 09:07:00,
2015-01-30 02:12:00,30.1,21.5,30.33,SE,126,4.0,4.0,70,0.00,,,0.00,Wunderground v.1.15,2015-01-30 09:12:00,
2015-01-30 02:21:00,30.0,22.1,30.32,ENE,66,2.0,5.0,72,0.00,,,0.00,Wunderground v.1.15,2015-01-30 09:21:00,
2015-01-30 02:27:00,29.9,22.0,30.32,SW,219,2.0,6.0,72,0.00,,,0.00,Wunderground v.1.15,2015-01-30 09:27:00,
2015-01-30 02:37:00,29.8,21.9,30.32,South,171,2.0,2.0,72,0.00,,,0.00,Wunderground v.1.15,2015-01-30 09:37:00,
2015-01-30 02:42:00,29.8,21.5,30.32,North,355,2.0,15.0,71,0.00,,,0.00,Wunderground v.1.15,2015-01-30 09:42:00,
2015-01-30 02:47:00,29.8,21.5,30.32,NE,47,2.0,2.0,71,0.00,,,0.00,Wunderground v.1.15,2015-01-30 09:47:00,
2015-01-30 02:52:00,29.7,21.8,30.32,East,83,3.0,6.0,72,0.00,,,0.00,Wunderground v.1.15,2015-01-30 09:52:00,
2015-01-30 02:57:00,29.7,21.8,30.32,NNE,30,2.0,3.0,72,0.00,,,0.00,Wunderground v.1.15,2015-01-30 09:57:00,
2015-01-30 03:07:00,29.4,22.5,30.32,NNW,348,2.0,2.0,75,0.00,,,0.00,Wunderground v.1.15,2015-01-30 10:07:00,
2015-01-30 03:12:00,29.3,22.7,30.32,ENE,78,2.0,2.0,76,0.00,,,0.00,Wunderground v.1.15,2015-01-30 10:12:00,
2015-01-30 03:17:00,29.0,22.7,30.32,West,273,1.0,1.0,77,0.00,,,0.00,Wunderground v.1.15,2015-01-30 10:17:00,
2015-01-30 03:26:00,28.8,22.8,30.31,NNE,26,2.0,2.0,78,0.00,,,0.00,Wunderground v.1.15,2015-01-30 10:26:00,
2015-01-30 03:31:00,28.7,23.0,30.31,NE,34,3.0,3.0,79,0.00,,,0.00,Wunderground v.1.15,2015-01-30 10:31:00,
2015-01-30 03:37:00,28.5,22.8,30.30,East,82,3.0,3.0,79,0.00,,,0.00,Wunderground v.1.15,2015-01-30 10:37:00,
2015-01-30 03:42:00,28.5,22.8,30.30,East,98,2.0,10.0,79,0.00,,,0.00,Wunderground v.1.15,2015-01-30 10:42:00,
2015-01-30 03:47:00,28.4,22.7,30.30,SE,133,2.0,10.0,79,0.00,,,0.00,Wunderground v.1.15,2015-01-30 10:47:00,
2015-01-30 03:52:00,28.4,22.7,30.29,NNE,18,1.0,10.0,79,0.00,,,0.00,Wunderground v.1.15,2015-01-30 10:52:00,
2015-01-30 03:57:00,28.4,22.7,30.29,ENE,65,2.0,3.0,79,0.00,,,0.00,Wunderground v.1.15,2015-01-30 10:57:00,
2015-01-30 04:07:00,28.4,23.0,30.28,NE,53,2.0,5.0,80,0.00,,,0.00,Wunderground v.1.15,2015-01-30 11:07:00,
2015-01-30 04:17:00,28.3,22.9,30.28,ENE,61,2.0,3.0,80,0.00,,,0.00,Wunderground v.1.15,2015-01-30 11:17:00,
2015-01-30 04:22:00,28.4,23.3,30.28,NNW,329,1.0,3.0,81,0.00,,,0.00,Wunderground v.1.15,2015-01-30 11:22:00,
2015-01-30 04:27:00,28.3,23.2,30.28,NNE,24,1.0,1.0,81,0.00,,,0.00,Wunderground v.1.15,2015-01-30 11:27:00,
2015-01-30 04:32:00,28.3,23.2,30.28,South,173,1.0,10.0,81,0.00,,,0.00,Wunderground v.1.15,2015-01-30 11:32:00,
2015-01-30 04:37:00,28.4,23.3,30.29,ESE,111,1.0,1.0,81,0.00,,,0.00,Wunderground v.1.15,2015-01-30 11:37:00,
2015-01-30 04:47:00,28.4,23.3,30.28,NNE,25,1.0,1.0,81,0.00,,,0.00,Wunderground v.1.15,2015-01-30 11:47:00,
2015-01-30 04:52:00,28.4,23.3,30.28,NE,52,1.0,10.0,81,0.00,,,0.00,Wunderground v.1.15,2015-01-30 11:52:00,
2015-01-30 04:57:00,28.5,23.4,30.27,NW,305,1.0,1.0,81,0.00,,,0.00,Wunderground v.1.15,2015-01-30 11:57:00,
2015-01-30 05:07:00,28.5,23.4,30.27,East,82,1.0,10.0,81,0.00,,,0.00,Wunderground v.1.15,2015-01-30 12:07:00,
2015-01-30 05:12:00,28.6,23.2,30.27,ESE,105,2.0,10.0,80,0.00,,,0.00,Wunderground v.1.15,2015-01-30 12:12:00,
2015-01-30 05:22:00,28.7,23.3,30.27,ESE,111,2.0,2.0,80,0.00,,,0.00,Wunderground v.1.15,2015-01-30 12:22:00,
2015-01-30 05:27:00,28.7,23.3,30.27,South,190,3.0,3.0,80,0.00,,,0.00,Wunderground v.1.15,2015-01-30 12:27:00,
2015-01-30 05:36:00,28.8,23.1,30.26,ENE,73,1.0,10.0,79,0.00,,,0.00,Wunderground v.1.15,2015-01-30 12:36:00,
2015-01-30 05:42:00,29.0,23.3,30.27,NE,53,2.0,10.0,79,0.00,,,0.00,Wunderground v.1.15,2015-01-30 12:42:00,
2015-01-30 05:47:00,29.0,23.3,30.27,West,281,2.0,2.0,79,0.00,,,0.00,Wunderground v.1.15,2015-01-30 12:47:00,
2015-01-30 05:52:00,29.1,23.4,30.27,ENE,76,2.0,10.0,79,0.00,,,0.00,Wunderground v.1.15,2015-01-30 12:52:00,
2015-01-30 05:57:00,29.2,23.5,30.27,East,85,2.0,5.0,79,0.00,,,0.00,Wunderground v.1.15,2015-01-30 12:57:00,
2015-01-30 06:06:00,29.4,24.0,30.27,NE,55,2.0,2.0,80,0.00,,,0.00,Wunderground v.1.15,2015-01-30 13:06:00,
2015-01-30 06:12:00,29.4,24.0,30.27,NE,37,1.0,2.0,80,0.00,,,0.00,Wunderground v.1.15,2015-01-30 13:12:00,
2015-01-30 06:17:00,29.5,24.1,30.27,ENE,57,1.0,1.0,80,0.00,,,0.00,Wunderground v.1.15,2015-01-30 13:17:00,
2015-01-30 06:22:00,29.5,24.4,30.26,East,82,1.0,1.0,81,0.00,,,0.00,Wunderground v.1.15,2015-01-30 13:22:00,
2015-01-30 06:31:00,29.4,24.9,30.25,North,355,1.0,9.0,83,0.00,,,0.00,Wunderground v.1.15,2015-01-30 13:31:00,
2015-01-30 06:37:00,29.4,25.2,30.25,ESE,122,1.0,1.0,84,0.00,,,0.00,Wunderground v.1.15,2015-01-30 13:37:00,
2015-01-30 06:42:00,29.3,25.4,30.25,East,80,1.0,9.0,85,0.00,,,0.00,Wunderground v.1.15,2015-01-30 13:42:00,
2015-01-30 06:47:00,29.3,25.6,30.25,East,80,1.0,1.0,86,0.00,,,0.00,Wunderground v.1.15,2015-01-30 13:47:00,
2015-01-30 06:52:00,29.3,25.9,30.25,East,80,2.0,2.0,87,0.00,,,0.00,Wunderground v.1.15,2015-01-30 13:52:00,
2015-01-30 06:57:00,29.3,25.9,30.25,East,84,2.0,3.0,87,0.00,,,0.00,Wunderground v.1.15,2015-01-30 13:57:00,
2015-01-30 07:07:00,29.5,26.4,30.25,ENE,65,1.0,1.0,88,0.00,,,0.00,Wunderground v.1.15,2015-01-30 14:07:00,
2015-01-30 07:12:00,29.5,26.1,30.25,ENE,61,0.0,1.0,87,0.00,,,0.00,Wunderground v.1.15,2015-01-30 14:12:00,
2015-01-30 07:17:00,29.6,26.2,30.24,ESE,117,0.0,0.0,87,0.00,,,0.00,Wunderground v.1.15,2015-01-30 14:17:00,
2015-01-30 07:22:00,29.6,26.2,30.24,ENE,67,0.0,0.0,87,0.00,,,0.00,Wunderground v.1.15,2015-01-30 14:22:00,
2015-01-30 07:31:00,29.8,26.1,30.23,NNW,340,0.0,6.0,86,0.00,,,0.00,Wunderground v.1.15,2015-01-30 14:31:00,
2015-01-30 07:36:00,29.9,25.9,30.23,ESE,107,0.0,6.0,85,0.00,,,0.00,Wunderground v.1.15,2015-01-30 14:36:00,
2015-01-30 07:42:00,29.9,25.9,30.23,NE,52,0.0,6.0,85,0.00,,,0.00,Wunderground v.1.15,2015-01-30 14:42:00,
2015-01-30 07:47:00,30.0,26.0,30.23,NE,50,0.0,6.0,85,0.00,,,0.00,Wunderground v.1.15,2015-01-30 14:47:00,
2015-01-30 07:57:00,30.3,26.0,30.23,ENE,71,1.0,1.0,84,0.00,,,0.00,Wunderground v.1.15,2015-01-30 14:57:00,
2015-01-30 08:07:00,30.4,25.9,30.23,ENE,64,1.0,1.0,83,0.00,,,0.00,Wunderground v.1.15,2015-01-30 15:07:00,
2015-01-30 08:17:00,30.6,25.8,30.23,ESE,114,2.0,3.0,82,0.00,,,0.00,Wunderground v.1.15,2015-01-30 15:17:00,
2015-01-30 08:22:00,30.7,25.9,30.23,East,80,2.0,5.0,82,0.00,,,0.00,Wunderground v.1.15,2015-01-30 15:22:00,
2015-01-30 08:32:00,31.0,25.9,30.23,East,93,2.0,5.0,81,0.00,,,0.00,Wunderground v.1.15,2015-01-30 15:32:00,
2015-01-30 08:37:00,31.0,25.6,30.23,North,360,2.0,5.0,80,0.00,,,0.00,Wunderground v.1.15,2015-01-30 15:37:00,
2015-01-30 08:42:00,31.0,25.6,30.24,WNW,300,2.0,5.0,80,0.00,,,0.00,Wunderground v.1.15,2015-01-30 15:42:00,
2015-01-30 08:47:00,30.7,25.0,30.24,WNW,297,2.0,2.0,79,0.00,,,0.00,Wunderground v.1.15,2015-01-30 15:47:00,
2015-01-30 08:57:00,30.0,24.6,30.24,WNW,293,2.0,3.0,80,0.00,,,0.00,Wunderground v.1.15,2015-01-30 15:57:00,
2015-01-30 09:07:00,29.3,24.2,30.24,NW,323,2.0,2.0,81,0.00,,,0.00,Wunderground v.1.15,2015-01-30 16:07:00,
2015-01-30 09:17:00,29.4,24.9,30.24,NW,312,2.0,2.0,83,0.00,,,0.00,Wunderground v.1.15,2015-01-30 16:17:00,
2015-01-30 09:22:00,29.9,25.7,30.24,NE,50,2.0,2.0,84,0.00,,,0.00,Wunderground v.1.15,2015-01-30 16:22:00,